createdAt,value
2019-04-14T00:00:06.167Z,50.67
2019-04-14T00:02:27.556Z,55.65
2019-04-14T00:04:36.096Z,60.75
2019-04-14T00:06:41.879Z,64.22
2019-04-14T00:08:45.965Z,60.17
2019-04-14T00:10:50.800Z,60.83
2019-04-14T00:12:55.647Z,66.17
2019-04-14T00:14:59.940Z,57.08
2019-04-14T00:17:04.241Z,54.60
2019-04-14T00:19:08.789Z,56.33
2019-04-14T00:21:13.025Z,56.85
2019-04-14T00:23:17.270Z,51.98
2019-04-14T00:25:21.653Z,49.98
2019-04-14T00:27:25.992Z,51.00
2019-04-14T00:29:30.632Z,51.35
2019-04-14T00:31:35.132Z,50.17
2019-04-14T00:33:39.274Z,51.40
2019-04-14T00:36:02.929Z,49.77
2019-04-14T00:38:17.569Z,50.38
2019-04-14T00:40:29.275Z,48.38
2019-04-14T00:42:34.216Z,44.88
2019-04-14T00:44:40.877Z,47.23
2019-04-14T00:46:52.376Z,45.73
2019-04-14T00:48:56.570Z,41.80
2019-04-14T00:51:00.681Z,43.75
2019-04-14T00:53:05.486Z,39.40
2019-04-14T00:55:09.821Z,44.05
2019-04-14T00:57:13.946Z,43.50
2019-04-14T00:59:18.144Z,47.30
2019-04-14T01:01:21.978Z,46.48
2019-04-14T01:03:26.561Z,47.88
2019-04-14T01:05:32.879Z,48.17
2019-04-14T01:07:37.019Z,51.45
2019-04-14T01:09:41.252Z,51.25
2019-04-14T01:11:46.402Z,57.08
2019-04-14T01:13:50.851Z,56.45
2019-04-14T01:16:03.882Z,50.23
2019-04-14T01:18:01.505Z,53.65
2019-04-14T01:20:06.460Z,55.35
2019-04-14T01:22:11.885Z,53.55
2019-04-14T01:24:16.370Z,48.87
2019-04-14T01:26:20.604Z,52.45
2019-04-14T01:28:24.698Z,49.83
2019-04-14T01:30:28.535Z,53.73
2019-04-14T01:32:32.712Z,49.90
2019-04-14T01:34:37.062Z,53.45
2019-04-14T01:36:41.261Z,49.70
2019-04-14T01:38:45.460Z,57.33
2019-04-14T01:40:49.586Z,57.30
2019-04-14T01:42:54.813Z,61.90
2019-04-14T01:44:59.292Z,60.98
2019-04-14T01:47:03.442Z,63.33
2019-04-14T01:49:07.328Z,63.25
2019-04-14T01:51:28.856Z,63.63
2019-04-14T01:53:35.729Z,66.65
2019-04-14T01:55:44.222Z,60.58
2019-04-14T01:57:59.022Z,63.95
2019-04-14T02:00:05.393Z,63.52
2019-04-14T02:02:11.878Z,70.47
2019-04-14T02:04:15.985Z,71.75
2019-04-14T02:06:20.372Z,68.62
2019-04-14T02:08:24.496Z,67.60
2019-04-14T02:10:28.676Z,69.70
2019-04-14T02:12:32.512Z,70.67
2019-04-14T02:14:36.693Z,69.15
2019-04-14T02:16:47.143Z,68.17
2019-04-14T02:18:47.431Z,75.40
2019-04-14T02:20:53.494Z,77.25
2019-04-14T02:22:57.768Z,77.58
2019-04-14T02:25:01.960Z,78.33
2019-04-14T02:27:06.076Z,88.82
2019-04-14T02:29:09.988Z,83.72
2019-04-14T02:31:30.114Z,92.08
2019-04-14T02:33:44.642Z,89.10
2019-04-14T02:35:59.712Z,87.37
2019-04-14T02:38:03.424Z,88.27
2019-04-14T02:40:05.374Z,88.25
2019-04-14T02:42:17.364Z,84.67
2019-04-14T02:46:26.275Z,73.20
2019-04-14T02:48:38.205Z,81.17
2019-04-14T02:50:30.323Z,78.17
2019-04-14T02:52:41.589Z,82.12
2019-04-14T02:54:51.778Z,75.80
2019-04-14T02:56:56.481Z,78.65
2019-04-14T03:01:08.149Z,80.45
2019-04-14T03:03:10.817Z,81.30
2019-04-14T03:05:09.509Z,85.80
2019-04-14T03:07:47.740Z,93.58
2019-04-14T03:11:30.843Z,88.47
2019-04-14T03:13:45.046Z,77.32
2019-04-14T03:15:53.601Z,84.03
2019-04-14T03:18:20.463Z,88.75
2019-04-14T03:20:20.487Z,85.15
2019-04-14T03:22:33.583Z,92.50
2019-04-14T03:24:34.152Z,86.17
2019-04-14T03:26:59.430Z,88.10
2019-04-14T03:28:58.969Z,83.50
2019-04-14T03:33:33.224Z,84.07
2019-04-14T03:35:51.948Z,86.85
2019-04-14T03:41:41.239Z,106.45
2019-04-14T03:43:57.765Z,98.70
2019-04-14T03:46:12.043Z,107.40
2019-04-14T03:48:31.559Z,107.10
2019-04-14T03:50:06.029Z,106.40
2019-04-14T03:52:08.757Z,111.35
2019-04-14T03:54:07.902Z,126.67
2019-04-14T03:56:02.406Z,126.70
2019-04-14T03:58:03.681Z,124.20
2019-04-14T04:00:07.959Z,134.25
2019-04-14T04:02:12.168Z,132.70
2019-04-14T04:04:16.392Z,131.20
2019-04-14T04:06:20.359Z,140.53
2019-04-14T04:08:24.603Z,131.80
2019-04-14T04:10:29.223Z,124.38
2019-04-14T04:12:33.637Z,117.08
2019-04-14T04:14:37.850Z,121.53
2019-04-14T04:16:59.996Z,118.02
2019-04-14T04:19:23.028Z,119.00
2019-04-14T04:21:29.171Z,117.40
2019-04-14T04:23:51.242Z,105.37
2019-04-14T04:25:59.548Z,98.55
2019-04-14T04:28:05.989Z,97.95
2019-04-14T04:30:12.383Z,106.05
2019-04-14T04:32:18.654Z,102.40
2019-04-14T04:34:27.268Z,105.47
2019-04-14T04:36:35.980Z,110.42
2019-04-14T04:38:48.713Z,104.83
2019-04-14T04:40:52.943Z,106.35
2019-04-14T04:42:57.098Z,109.10
2019-04-14T04:45:01.789Z,105.90
2019-04-14T04:47:05.815Z,112.47
2019-04-14T04:49:16.488Z,111.95
2019-04-14T04:51:16.008Z,108.80
2019-04-14T04:53:20.249Z,110.22
2019-04-14T04:55:24.436Z,102.75
2019-04-14T04:57:28.655Z,108.57
2019-04-14T04:59:34.495Z,118.97
2019-04-14T05:01:38.749Z,124.50
2019-04-14T05:03:42.928Z,129.57
2019-04-14T05:06:09.326Z,127.27
2019-04-14T05:08:13.138Z,140.10
2019-04-14T05:10:19.559Z,143.07
2019-04-14T05:12:41.339Z,134.67
2019-04-14T05:14:47.988Z,141.22
2019-04-14T05:16:52.855Z,123.50
2019-04-14T05:19:05.223Z,121.40
2019-04-14T05:21:03.856Z,129.00
2019-04-14T05:23:08.074Z,129.07
2019-04-14T05:25:12.479Z,122.42
2019-04-14T05:27:16.731Z,127.38
2019-04-14T05:29:21.131Z,129.42
2019-04-14T05:31:27.750Z,130.40
2019-04-14T05:33:31.501Z,121.97
2019-04-14T05:35:35.893Z,130.37
2019-04-14T05:37:40.096Z,134.52
2019-04-14T05:39:44.305Z,127.47
2019-04-14T05:42:03.846Z,147.17
2019-04-14T05:43:58.392Z,139.05
2019-04-14T05:45:59.621Z,132.20
2019-04-14T05:48:03.455Z,129.42
2019-04-14T05:50:07.861Z,135.20
2019-04-14T05:52:12.035Z,125.02
2019-04-14T05:54:16.405Z,131.18
2019-04-14T05:56:20.704Z,106.97
2019-04-14T05:58:25.350Z,107.37
2019-04-14T06:00:29.967Z,103.20
2019-04-14T06:02:35.513Z,126.92
2019-04-14T06:04:39.649Z,108.52
2019-04-14T06:06:43.757Z,115.15
2019-04-14T06:08:47.572Z,109.57
2019-04-14T06:10:51.409Z,103.70
2019-04-14T06:12:55.273Z,98.40
2019-04-14T06:14:59.388Z,107.50
2019-04-14T06:17:03.216Z,99.70
2019-04-14T06:19:07.413Z,92.85
2019-04-14T06:21:11.538Z,83.87
2019-04-14T06:23:15.836Z,80.70
2019-04-14T06:25:20.045Z,89.47
2019-04-14T06:27:23.873Z,89.05
2019-04-14T06:29:28.057Z,85.38
2019-04-14T06:31:39.534Z,83.45
2019-04-14T06:33:45.407Z,102.70
2019-04-14T06:35:50.877Z,98.85
2019-04-14T06:38:02.226Z,89.62
2019-04-14T06:40:08.167Z,96.92
2019-04-14T06:42:12.383Z,90.97
2019-04-14T06:44:16.242Z,99.13
2019-04-14T06:46:20.071Z,89.37
2019-04-14T06:48:24.213Z,103.35
2019-04-14T06:50:28.418Z,103.15
2019-04-14T06:52:32.623Z,107.75
2019-04-14T06:54:36.735Z,101.47
2019-04-14T06:56:40.640Z,78.28
2019-04-14T06:58:44.466Z,81.05
2019-04-14T07:00:48.339Z,89.50
2019-04-14T07:02:52.463Z,85.75
2019-04-14T07:04:56.596Z,90.70
2019-04-14T07:07:00.783Z,116.62
2019-04-14T07:09:06.548Z,95.92
2019-04-14T07:11:10.647Z,102.53
2019-04-14T07:13:14.480Z,88.30
2019-04-14T07:15:18.341Z,114.17
2019-04-14T07:17:22.467Z,98.80
2019-04-14T07:19:26.299Z,167.10
2019-04-14T07:21:30.495Z,91.97
2019-04-14T07:23:34.696Z,89.95
2019-04-14T07:25:38.919Z,88.05
2019-04-14T07:27:42.767Z,97.55
2019-04-14T07:29:48.246Z,91.47
2019-04-14T07:31:56.455Z,82.70
2019-04-14T07:34:17.051Z,74.58
2019-04-14T07:36:22.898Z,72.32
2019-04-14T07:38:28.742Z,69.87
2019-04-14T07:40:34.606Z,86.32
2019-04-14T07:42:51.877Z,94.58
2019-04-14T07:44:57.369Z,72.25
2019-04-14T07:47:03.226Z,78.90
2019-04-14T07:49:08.711Z,68.52
2019-04-14T07:51:17.055Z,78.25
2019-04-14T07:53:22.913Z,69.45
2019-04-14T07:55:37.732Z,68.62
2019-04-14T07:58:01.760Z,62.20
2019-04-14T08:00:10.895Z,64.17
2019-04-14T08:02:25.861Z,64.53
2019-04-14T08:04:34.562Z,62.70
2019-04-14T08:06:38.700Z,68.75
2019-04-14T08:08:42.541Z,65.47
2019-04-14T08:10:46.693Z,69.32
2019-04-14T08:12:50.919Z,62.88
2019-04-14T08:14:55.017Z,69.32
2019-04-14T08:16:59.130Z,65.57
2019-04-14T08:19:03.341Z,59.95
2019-04-14T08:21:07.653Z,60.00
2019-04-14T08:23:11.781Z,61.53
2019-04-14T08:25:15.978Z,73.75
2019-04-14T08:27:20.088Z,63.30
2019-04-14T08:29:24.297Z,68.97
2019-04-14T08:31:28.413Z,66.72
2019-04-14T08:33:32.537Z,62.38
2019-04-14T08:35:36.392Z,72.72
2019-04-14T08:37:40.205Z,61.63
2019-04-14T08:39:44.344Z,65.37
2019-04-14T08:41:50.191Z,56.37
2019-04-14T08:43:59.117Z,56.02
2019-04-14T08:46:10.323Z,63.60
2019-04-14T08:48:24.467Z,60.15
2019-04-14T08:50:39.677Z,58.35
2019-04-14T08:52:52.357Z,56.85
2019-04-14T08:55:00.753Z,77.25
2019-04-14T08:57:12.303Z,57.98
2019-04-14T08:59:18.061Z,64.05
2019-04-14T09:01:23.917Z,107.25
2019-04-14T09:03:35.903Z,53.40
2019-04-14T09:05:41.651Z,53.98
2019-04-14T09:07:50.392Z,78.92
2019-04-14T09:09:58.859Z,55.80
2019-04-14T09:12:14.790Z,59.98
2019-04-14T09:14:10.211Z,49.53
2019-04-14T09:16:14.039Z,52.75
2019-04-14T09:18:17.871Z,49.55
2019-04-14T09:20:22.127Z,46.10
2019-04-14T09:22:26.327Z,49.83
2019-04-14T09:24:30.422Z,47.05
2019-04-14T09:26:34.647Z,49.20
2019-04-14T09:28:38.853Z,46.48
2019-04-14T09:30:42.701Z,46.10
2019-04-14T09:32:46.878Z,48.10
2019-04-14T09:34:51.073Z,46.33
2019-04-14T09:36:55.179Z,49.50
2019-04-14T09:38:59.029Z,50.33
2019-04-14T09:41:03.208Z,47.90
2019-04-14T09:43:09.383Z,48.40
2019-04-14T09:45:13.057Z,46.30
2019-04-14T09:47:16.886Z,42.78
2019-04-14T09:49:21.071Z,41.60
2019-04-14T09:51:24.890Z,40.80
2019-04-14T09:53:28.706Z,46.25
2019-04-14T09:55:32.897Z,44.20
2019-04-14T09:57:37.013Z,45.12
2019-04-14T09:59:40.817Z,41.45
2019-04-14T10:01:45.029Z,44.50
2019-04-14T10:03:49.248Z,40.08
2019-04-14T10:05:53.080Z,46.77
2019-04-14T10:07:57.353Z,42.95
2019-04-14T10:10:01.579Z,38.98
2019-04-14T10:12:05.399Z,39.25
2019-04-14T10:14:09.248Z,39.30
2019-04-14T10:16:13.394Z,38.00
2019-04-14T10:18:17.219Z,37.55
2019-04-14T10:20:21.063Z,36.20
2019-04-14T10:22:33.777Z,38.30
2019-04-14T10:24:30.468Z,35.28
2019-04-14T10:26:34.662Z,39.30
2019-04-14T10:28:38.772Z,37.50
2019-04-14T10:30:42.584Z,36.23
2019-04-14T10:32:46.689Z,36.85
2019-04-14T10:34:50.798Z,39.23
2019-04-14T10:36:55.005Z,40.85
2019-04-14T10:38:59.105Z,37.35
2019-04-14T10:41:02.970Z,38.05
2019-04-14T10:43:08.969Z,35.05
2019-04-14T10:45:13.125Z,44.58
2019-04-14T10:47:17.304Z,33.30
2019-04-14T10:49:21.502Z,35.33
2019-04-14T10:51:30.276Z,50.98
2019-04-14T10:53:31.251Z,35.03
2019-04-14T10:55:35.175Z,38.33
2019-04-14T10:57:39.553Z,36.88
2019-04-14T10:59:43.692Z,33.65
2019-04-14T11:01:47.787Z,31.77
2019-04-14T11:03:52.205Z,39.33
2019-04-14T11:06:14.042Z,33.90
2019-04-14T11:08:18.384Z,30.48
2019-04-14T11:10:22.686Z,33.58
2019-04-14T11:12:26.524Z,38.33
2019-04-14T11:14:30.317Z,32.28
2019-04-14T11:16:34.498Z,31.42
2019-04-14T11:18:38.359Z,35.30
2019-04-14T11:20:42.506Z,32.93
2019-04-14T11:22:46.726Z,33.33
2019-04-14T11:24:50.620Z,30.07
2019-04-14T11:26:54.170Z,32.60
2019-04-14T11:28:58.037Z,30.90
2019-04-14T11:31:01.937Z,31.57
2019-04-14T11:33:13.318Z,30.10
2019-04-14T11:35:18.582Z,28.97
2019-04-14T11:37:24.086Z,37.93
2019-04-14T11:39:27.996Z,30.50
2019-04-14T11:41:31.822Z,26.77
2019-04-14T11:43:35.696Z,30.23
2019-04-14T11:45:39.605Z,30.93
2019-04-14T11:47:43.424Z,30.83
2019-04-14T11:49:47.328Z,30.77
2019-04-14T11:51:55.488Z,28.97
2019-04-14T11:53:56.470Z,26.20
2019-04-14T11:56:00.379Z,27.53
2019-04-14T11:58:04.384Z,26.17
2019-04-14T12:00:26.132Z,29.63
2019-04-14T12:02:40.570Z,32.70
2019-04-14T12:04:46.114Z,31.13
2019-04-14T12:06:51.319Z,28.60
2019-04-14T12:08:59.219Z,30.03
2019-04-14T12:11:03.040Z,27.80
2019-04-14T12:13:06.938Z,31.77
2019-04-14T12:15:16.079Z,30.73
2019-04-14T12:17:16.606Z,32.60
2019-04-14T12:19:20.515Z,28.87
2019-04-14T12:21:24.044Z,30.47
2019-04-14T12:23:27.598Z,31.07
2019-04-14T12:25:31.139Z,27.67
2019-04-14T12:27:34.681Z,30.53
2019-04-14T12:29:39.048Z,30.23
2019-04-14T12:31:44.101Z,28.20
2019-04-14T12:33:47.946Z,29.50
2019-04-14T12:35:51.480Z,28.47
2019-04-14T12:37:55.013Z,29.47
2019-04-14T12:39:58.830Z,28.80
2019-04-14T12:42:06.832Z,28.50
2019-04-14T12:44:27.344Z,35.13
2019-04-14T12:46:50.876Z,26.30
2019-04-14T12:49:02.080Z,28.47
2019-04-14T12:51:07.622Z,27.90
2019-04-14T12:53:11.532Z,26.13
2019-04-14T12:55:15.647Z,25.03
2019-04-14T12:57:20.824Z,26.80
2019-04-14T12:59:26.563Z,28.50
2019-04-14T13:01:48.256Z,26.00
2019-04-14T13:03:52.138Z,27.57
2019-04-14T13:05:56.045Z,25.87
2019-04-14T13:07:59.952Z,22.60
2019-04-14T13:10:05.327Z,27.33
2019-04-14T13:12:10.390Z,25.73
2019-04-14T13:14:14.542Z,34.17
2019-04-14T13:16:18.438Z,28.37
2019-04-14T13:18:22.263Z,31.80
2019-04-14T13:20:26.172Z,26.33
2019-04-14T13:22:34.124Z,25.00
2019-04-14T13:24:35.595Z,28.43
2019-04-14T13:26:39.523Z,27.63
2019-04-14T13:28:43.044Z,26.83
2019-04-14T13:30:47.758Z,29.00
2019-04-14T13:32:51.633Z,27.63
2019-04-14T13:34:55.166Z,25.37
2019-04-14T13:36:59.038Z,24.50
2019-04-14T13:39:04.578Z,22.40
2019-04-14T13:41:08.130Z,24.70
2019-04-14T13:43:11.971Z,24.13
2019-04-14T13:45:15.577Z,28.47
2019-04-14T13:47:19.472Z,24.20
2019-04-14T13:49:23.294Z,22.13
2019-04-14T13:51:27.191Z,24.87
2019-04-14T13:53:31.098Z,22.40
2019-04-14T13:55:34.987Z,23.77
2019-04-14T13:57:38.538Z,22.10
2019-04-14T13:59:42.398Z,21.53
2019-04-14T14:01:46.200Z,22.87
2019-04-14T14:03:50.115Z,19.43
2019-04-14T14:05:54.014Z,23.17
2019-04-14T14:07:57.949Z,23.00
2019-04-14T14:10:01.825Z,23.63
2019-04-14T14:12:07.299Z,20.73
2019-04-14T14:14:24.455Z,22.10
2019-04-14T14:16:45.997Z,21.87
2019-04-14T14:18:54.302Z,20.87
2019-04-14T14:21:08.266Z,22.73
2019-04-14T14:23:27.784Z,20.57
2019-04-14T14:25:48.502Z,22.93
2019-04-14T14:27:52.134Z,20.63
2019-04-14T14:29:55.688Z,23.30
2019-04-14T14:32:01.114Z,24.17
2019-04-14T14:34:04.716Z,23.47
2019-04-14T14:36:08.248Z,25.90
2019-04-14T14:38:12.173Z,23.80
2019-04-14T14:40:16.422Z,23.73
2019-04-14T14:42:20.288Z,23.90
2019-04-14T14:44:25.646Z,22.20
2019-04-14T14:46:31.168Z,23.13
2019-04-14T14:48:36.726Z,24.07
2019-04-14T14:50:51.268Z,24.40
2019-04-14T14:52:55.159Z,23.00
2019-04-14T14:54:59.072Z,20.57
2019-04-14T14:57:02.599Z,23.17
2019-04-14T14:59:06.782Z,24.37
2019-04-14T15:01:10.682Z,22.20
2019-04-14T15:03:14.589Z,22.00
2019-04-14T15:05:18.492Z,22.23
2019-04-14T15:07:22.414Z,22.87
2019-04-14T15:09:26.301Z,21.73
2019-04-14T15:11:30.218Z,20.83
2019-04-14T15:13:34.435Z,23.57
2019-04-14T15:15:38.337Z,21.87
2019-04-14T15:17:41.872Z,25.57
2019-04-14T15:19:45.424Z,34.07
2019-04-14T15:21:49.330Z,22.10
2019-04-14T15:23:53.241Z,27.27
2019-04-14T15:25:57.195Z,28.90
2019-04-14T15:28:01.054Z,36.80
2019-04-14T15:30:10.565Z,24.80
2019-04-14T15:32:14.483Z,25.70
2019-04-14T15:34:18.391Z,21.67
2019-04-14T15:36:22.311Z,21.53
2019-04-14T15:38:26.198Z,24.33
2019-04-14T15:40:29.800Z,24.40
2019-04-14T15:42:33.704Z,29.87
2019-04-14T15:44:37.263Z,23.40
2019-04-14T15:46:41.113Z,26.40
2019-04-14T15:48:45.016Z,23.10
2019-04-14T15:50:48.832Z,23.30
2019-04-14T15:52:52.632Z,21.37
2019-04-14T15:54:56.532Z,20.63
2019-04-14T15:57:11.077Z,20.40
2019-04-14T15:59:29.567Z,27.57
2019-04-14T16:01:35.177Z,29.23
2019-04-14T16:03:40.365Z,19.97
2019-04-14T16:05:45.544Z,24.70
2019-04-14T16:07:57.238Z,28.00
2019-04-14T16:10:11.683Z,30.67
2019-04-14T16:12:22.784Z,30.87
2019-04-14T16:14:40.393Z,25.00
2019-04-14T16:17:04.568Z,22.53
2019-04-14T16:19:18.625Z,22.83
2019-04-14T16:21:22.152Z,26.77
2019-04-14T16:23:28.779Z,22.73
2019-04-14T16:25:34.318Z,21.43
2019-04-14T16:27:45.771Z,23.37
2019-04-14T16:29:59.988Z,21.27
2019-04-14T16:32:11.383Z,22.47
2019-04-14T16:34:29.054Z,19.23
2019-04-14T16:36:32.993Z,19.47
2019-04-14T16:38:36.505Z,19.10
2019-04-14T16:40:40.051Z,21.57
2019-04-14T16:42:43.967Z,22.50
2019-04-14T16:44:47.868Z,19.67
2019-04-14T16:46:51.770Z,22.40
2019-04-14T16:48:55.575Z,21.23
2019-04-14T16:50:59.960Z,19.00
2019-04-14T16:53:21.503Z,26.53
2019-04-14T16:55:39.237Z,25.83
2019-04-14T16:57:59.426Z,20.63
2019-04-14T17:00:04.673Z,58.53
2019-04-14T17:02:11.026Z,26.57
2019-04-14T17:04:14.854Z,20.85
2019-04-14T17:06:18.729Z,27.60
2019-04-14T17:08:22.852Z,21.12
2019-04-14T17:10:26.675Z,25.90
2019-04-14T17:12:30.510Z,20.32
2019-04-14T17:14:36.519Z,18.40
2019-04-14T17:16:58.436Z,17.48
2019-04-14T17:19:12.791Z,21.23
2019-04-14T17:21:33.301Z,20.27
2019-04-14T17:23:45.073Z,17.70
2019-04-14T17:25:56.757Z,19.90
2019-04-14T17:28:18.636Z,18.65
2019-04-14T17:30:30.392Z,19.75
2019-04-14T17:32:38.933Z,17.15
2019-04-14T17:35:00.917Z,20.48
2019-04-14T17:37:12.465Z,15.83
2019-04-14T17:39:36.179Z,18.40
2019-04-14T17:41:50.514Z,16.67
2019-04-14T17:44:02.420Z,18.67
2019-04-14T17:46:24.497Z,19.42
2019-04-14T17:48:33.379Z,15.45
2019-04-14T17:50:41.885Z,18.37
2019-04-14T17:52:50.595Z,18.92
2019-04-14T17:54:56.351Z,18.60
2019-04-14T17:57:02.205Z,18.75
2019-04-14T17:59:13.789Z,17.80
2019-04-14T18:01:22.108Z,18.62
2019-04-14T18:03:30.514Z,20.55
2019-04-14T18:05:51.121Z,20.15
2019-04-14T18:07:56.966Z,16.75
2019-04-14T18:10:02.724Z,19.37
2019-04-14T18:12:11.418Z,18.45
2019-04-14T18:14:28.755Z,20.25
2019-04-14T18:16:46.578Z,18.57
2019-04-14T18:19:01.085Z,19.52
2019-04-14T18:21:06.819Z,17.82
2019-04-14T18:23:11.000Z,17.75
2019-04-14T18:25:14.812Z,19.02
2019-04-14T18:27:19.183Z,18.05
2019-04-14T18:29:27.672Z,23.95
2019-04-14T18:31:33.466Z,21.73
2019-04-14T18:33:47.729Z,18.90
2019-04-14T18:35:53.435Z,21.00
2019-04-14T18:38:04.364Z,18.50
2019-04-14T18:40:10.391Z,18.80
2019-04-14T18:42:22.083Z,19.20
2019-04-14T18:44:36.937Z,24.60
2019-04-14T18:46:42.694Z,19.87
2019-04-14T18:48:48.539Z,22.20
2019-04-14T18:50:57.153Z,21.00
2019-04-14T18:53:03.024Z,28.85
2019-04-14T18:55:20.383Z,36.75
2019-04-14T18:57:26.142Z,82.60
2019-04-14T18:59:37.973Z,33.92
2019-04-14T19:01:57.476Z,25.35
2019-04-14T19:04:02.430Z,70.12
2019-04-14T19:06:06.782Z,27.77
2019-04-14T19:08:10.889Z,23.67
2019-04-14T19:10:15.101Z,25.95
2019-04-14T19:12:20.570Z,24.87
2019-04-14T19:14:29.274Z,51.50
2019-04-14T19:16:39.603Z,36.15
2019-04-14T19:18:41.941Z,29.27
2019-04-14T19:20:47.766Z,23.12
2019-04-14T19:22:51.589Z,26.80
2019-04-14T19:25:07.419Z,28.27
2019-04-14T19:27:00.977Z,33.73
2019-04-14T19:29:05.209Z,74.40
2019-04-14T19:31:09.070Z,40.05
2019-04-14T19:33:12.895Z,112.00
2019-04-14T19:35:16.731Z,29.55
2019-04-14T19:37:20.929Z,41.70
2019-04-14T19:39:25.040Z,27.67
2019-04-14T19:41:29.151Z,24.15
2019-04-14T19:43:33.380Z,57.67
2019-04-14T19:45:37.205Z,30.60
2019-04-14T19:47:41.381Z,21.12
2019-04-14T19:49:45.199Z,31.10
2019-04-14T19:51:49.045Z,20.72
2019-04-14T19:53:52.854Z,50.05
2019-04-14T19:55:56.675Z,38.50
2019-04-14T19:58:00.911Z,29.40
2019-04-14T20:00:07.043Z,21.23
2019-04-14T20:02:11.177Z,19.77
2019-04-14T20:04:15.286Z,19.95
2019-04-14T20:06:19.490Z,19.80
2019-04-14T20:08:23.611Z,20.43
2019-04-14T20:10:27.823Z,21.20
2019-04-14T20:12:31.920Z,17.12
2019-04-14T20:14:36.136Z,20.65
2019-04-14T20:16:41.905Z,17.37
2019-04-14T20:19:10.354Z,20.70
2019-04-14T20:21:22.781Z,17.27
2019-04-14T20:23:34.253Z,21.45
2019-04-14T20:25:42.384Z,24.80
2019-04-14T20:27:48.216Z,22.20
2019-04-14T20:29:54.060Z,19.32
2019-04-14T20:32:18.452Z,20.32
2019-04-14T20:34:22.575Z,51.70
2019-04-14T20:36:26.772Z,30.12
2019-04-14T20:38:30.616Z,21.17
2019-04-14T20:40:34.469Z,22.07
2019-04-14T20:42:38.368Z,18.35
2019-04-14T20:44:42.502Z,18.37
2019-04-14T20:46:46.348Z,26.30
2019-04-14T20:48:50.512Z,33.13
2019-04-14T20:50:54.632Z,20.52
2019-04-14T20:52:58.855Z,22.48
2019-04-14T20:55:03.061Z,25.57
2019-04-14T20:57:07.258Z,37.15
2019-04-14T20:59:11.096Z,17.82
2019-04-14T21:01:16.612Z,16.35
2019-04-14T21:03:25.343Z,20.32
2019-04-14T21:05:33.263Z,18.90
2019-04-14T21:07:55.455Z,34.70
2019-04-14T21:10:07.066Z,17.62
2019-04-14T21:12:28.986Z,17.25
2019-04-14T21:14:49.565Z,15.50
2019-04-14T21:17:00.725Z,37.48
2019-04-14T21:19:06.598Z,22.87
2019-04-14T21:21:17.922Z,19.15
2019-04-14T21:23:29.776Z,16.35
2019-04-14T21:25:35.634Z,14.53
2019-04-14T21:27:41.369Z,16.67
2019-04-14T21:29:49.776Z,18.75
2019-04-14T21:31:55.520Z,18.20
2019-04-14T21:34:12.813Z,16.77
2019-04-14T21:36:21.476Z,14.75
2019-04-14T21:38:39.494Z,20.77
2019-04-14T21:40:48.367Z,22.60
2019-04-14T21:42:52.549Z,13.68
2019-04-14T21:44:56.378Z,14.53
2019-04-14T21:47:00.268Z,26.62
2019-04-14T21:49:04.448Z,21.00
2019-04-14T21:51:08.297Z,15.38
2019-04-14T21:53:12.472Z,16.45
2019-04-14T21:55:16.315Z,13.70
2019-04-14T21:57:38.700Z,14.33
2019-04-14T21:59:44.468Z,43.10
2019-04-14T22:02:06.399Z,19.07
2019-04-14T22:04:15.236Z,12.80
2019-04-14T22:06:23.829Z,14.70
2019-04-14T22:08:35.326Z,12.85
2019-04-14T22:10:41.173Z,11.65
2019-04-14T22:12:46.828Z,12.30
2019-04-14T22:14:50.923Z,13.05
2019-04-14T22:16:55.021Z,13.80
2019-04-14T22:18:59.251Z,15.32
2019-04-14T22:21:03.462Z,14.40
2019-04-14T22:23:09.304Z,15.53
2019-04-14T22:25:13.214Z,15.90
2019-04-14T22:27:17.028Z,16.17
2019-04-14T22:29:21.230Z,13.53
2019-04-14T22:31:25.074Z,12.70
2019-04-14T22:33:29.242Z,15.38
2019-04-14T22:35:33.461Z,13.72
2019-04-14T22:37:37.680Z,15.80
2019-04-14T22:39:41.876Z,14.65
2019-04-14T22:41:46.004Z,16.57
2019-04-14T22:43:50.201Z,14.45
2019-04-14T22:45:54.049Z,12.55
2019-04-14T22:47:58.222Z,13.45
2019-04-14T22:50:02.418Z,15.45
2019-04-14T22:52:06.760Z,14.53
2019-04-14T22:54:10.965Z,15.13
2019-04-14T22:56:15.118Z,14.75
2019-04-14T22:58:19.294Z,15.58
2019-04-14T23:00:43.154Z,15.53
2019-04-14T23:03:04.866Z,13.10
2019-04-14T23:05:27.426Z,14.03
2019-04-14T23:07:48.010Z,15.08
2019-04-14T23:09:59.734Z,12.63
2019-04-14T23:12:05.201Z,13.98
2019-04-14T23:14:27.182Z,25.65
2019-04-14T23:16:39.270Z,18.75
2019-04-14T23:19:00.826Z,14.33
2019-04-14T23:21:15.553Z,14.23
2019-04-14T23:23:33.191Z,13.10
2019-04-14T23:25:37.379Z,15.08
2019-04-14T23:27:41.612Z,12.20
2019-04-14T23:29:45.832Z,12.65
2019-04-14T23:31:50.017Z,14.75
2019-04-14T23:33:54.136Z,14.43
2019-04-14T23:35:58.358Z,16.40
2019-04-14T23:38:02.578Z,16.60
2019-04-14T23:40:08.158Z,18.00
2019-04-14T23:42:12.329Z,16.32
2019-04-14T23:44:16.530Z,15.18
2019-04-14T23:46:20.645Z,14.53
2019-04-14T23:48:24.560Z,14.68
2019-04-14T23:50:28.654Z,15.40
2019-04-14T23:52:32.756Z,12.20
2019-04-14T23:54:36.996Z,14.73
2019-04-14T23:56:41.186Z,13.65
2019-04-14T23:58:45.312Z,14.90
